Time;durP1;ratioP1;P1;durP2;ratioP2;P2;SDS_P1;SDS_P2;PMS_P1;PMS_P2;Temp;Humidity;BMP_temperature;BMP_pressure;BME280_temperature;BME280_humidity;BME280_pressure;Samples;Min_cycle;Max_cycle;Signal;HPM_P1;HPM_P2
2024/01/18 00:00:47;;;;;;;32.80;24.33;;;0.80;90.40;;;;;;5039271;28;20212;-81
2024/01/18 00:03:14;;;;;;;35.22;25.63;;;0.70;90.50;;;;;;5037093;28;20114;-81
2024/01/18 00:05:40;;;;;;;36.28;25.02;;;0.70;90.50;;;;;;5032737;28;20037;-84
2024/01/18 00:08:05;;;;;;;34.33;24.27;;;0.70;90.60;;;;;;5029518;28;20026;-81
2024/01/18 00:10:31;;;;;;;35.60;24.48;;;0.70;90.50;;;;;;5041667;28;20526;-81
2024/01/18 00:12:57;;;;;;;33.47;22.98;;;0.70;90.60;;;;;;5040376;28;20112;-82
2024/01/18 00:15:23;;;;;;;31.40;23.23;;;0.70;90.60;;;;;;5044100;28;20021;-81
2024/01/18 00:17:49;;;;;;;32.97;24.05;;;0.70;90.70;;;;;;5042864;28;20484;-83
2024/01/18 00:20:15;;;;;;;33.50;24.17;;;0.70;90.80;;;;;;5035554;28;20696;-82
2024/01/18 00:22:40;;;;;;;36.15;24.75;;;0.80;90.90;;;;;;5034658;28;20036;-83
2024/01/18 00:25:07;;;;;;;33.78;25.00;;;0.70;91.00;;;;;;5037866;28;20108;-82
2024/01/18 00:27:32;;;;;;;35.00;25.25;;;0.80;91.00;;;;;;5028847;28;20029;-83
2024/01/18 00:29:58;;;;;;;33.38;24.25;;;0.80;91.10;;;;;;5038150;28;20017;-83
2024/01/18 00:32:24;;;;;;;34.85;24.30;;;0.80;90.80;;;;;;5039319;28;20501;-81
2024/01/18 00:34:50;;;;;;;34.55;25.17;;;0.80;90.80;;;;;;5037761;28;20046;-81
2024/01/18 00:37:16;;;;;;;38.00;25.85;;;0.80;90.90;;;;;;5035406;28;20032;-82
2024/01/18 00:39:42;;;;;;;36.67;25.52;;;0.80;90.90;;;;;;5038846;28;20543;-81
2024/01/18 00:42:07;;;;;;;37.38;24.10;;;0.80;90.90;;;;;;5041563;28;20978;-81
2024/01/18 00:44:33;;;;;;;33.17;24.27;;;0.80;90.90;;;;;;5036319;28;20409;-80
2024/01/18 00:46:59;;;;;;;35.45;24.85;;;0.70;90.90;;;;;;5033280;28;20044;-81
2024/01/18 00:49:24;;;;;;;33.63;24.52;;;0.70;90.90;;;;;;5028941;28;20039;-83
2024/01/18 00:51:50;;;;;;;36.47;25.25;;;0.70;90.80;;;;;;5030026;28;20120;-81
2024/01/18 00:54:16;;;;;;;38.38;27.15;;;0.70;90.80;;;;;;5039739;28;20395;-82
2024/01/18 00:56:41;;;;;;;42.72;27.50;;;0.70;90.70;;;;;;5034532;28;20094;-82
2024/01/18 00:59:08;;;;;;;34.22;24.63;;;0.60;90.70;;;;;;5034098;28;20038;-80
2024/01/18 01:01:34;;;;;;;37.80;25.05;;;0.60;90.70;;;;;;5030463;28;20256;-82
2024/01/18 01:03:59;;;;;;;32.38;23.75;;;0.60;90.70;;;;;;5034132;28;20037;-83
2024/01/18 01:06:25;;;;;;;32.97;23.23;;;0.60;90.80;;;;;;5033419;28;20090;-81
2024/01/18 01:08:51;;;;;;;34.35;24.75;;;0.60;90.80;;;;;;5028171;28;20459;-83
2024/01/18 01:11:17;;;;;;;33.38;23.83;;;0.60;90.70;;;;;;5034571;28;20096;-81
2024/01/18 01:13:44;;;;;;;37.33;23.77;;;0.60;90.60;;;;;;5037054;28;20023;-81
2024/01/18 01:16:10;;;;;;;33.22;23.90;;;0.60;90.60;;;;;;5036019;28;21487;-83
2024/01/18 01:18:36;;;;;;;32.40;23.42;;;0.60;90.60;;;;;;5029644;28;20034;-81
2024/01/18 01:21:02;;;;;;;30.10;22.63;;;0.50;90.50;;;;;;5030643;28;20135;-81
2024/01/18 01:23:28;;;;;;;30.80;23.15;;;0.60;90.50;;;;;;5036203;28;20496;-81
2024/01/18 01:25:53;;;;;;;30.63;22.20;;;0.60;90.40;;;;;;5029130;28;20025;-81
2024/01/18 01:28:19;;;;;;;32.50;23.02;;;0.60;90.40;;;;;;5034703;28;20104;-82
2024/01/18 01:30:44;;;;;;;31.48;23.30;;;0.60;90.30;;;;;;5034776;28;20504;-81
2024/01/18 01:33:10;;;;;;;33.45;22.27;;;0.50;90.30;;;;;;5033051;28;20061;-81
2024/01/18 01:35:36;;;;;;;34.10;23.60;;;0.50;90.30;;;;;;5035094;28;20751;-81
2024/01/18 01:38:01;;;;;;;31.08;23.00;;;0.50;90.30;;;;;;5033199;28;20418;-81
2024/01/18 01:40:27;;;;;;;32.17;22.63;;;0.50;90.30;;;;;;5031311;28;20082;-81
2024/01/18 01:42:52;;;;;;;33.95;23.73;;;0.50;90.30;;;;;;5028123;28;20465;-81
2024/01/18 01:45:18;;;;;;;36.10;23.20;;;0.50;90.40;;;;;;5041001;28;20492;-81
2024/01/18 01:47:44;;;;;;;30.13;22.88;;;0.40;90.40;;;;;;5033950;28;20029;-82
2024/01/18 01:50:11;;;;;;;33.38;23.17;;;0.40;90.50;;;;;;5030369;28;20016;-80
2024/01/18 01:52:39;;;;;;;32.47;23.13;;;0.50;90.50;;;;;;5031185;28;20029;-81
2024/01/18 01:55:07;;;;;;;31.08;21.67;;;0.60;90.50;;;;;;5031796;28;20025;-80
2024/01/18 01:57:33;;;;;;;33.35;22.05;;;0.60;90.50;;;;;;5027509;28;20025;-81
2024/01/18 01:59:59;;;;;;;29.70;22.02;;;0.60;90.30;;;;;;5034315;28;20464;-81
2024/01/18 02:02:25;;;;;;;29.92;21.58;;;0.60;90.40;;;;;;5039871;28;20025;-81
2024/01/18 02:04:52;;;;;;;31.52;23.05;;;0.50;90.40;;;;;;5030675;28;20033;-80
2024/01/18 02:07:19;;;;;;;31.38;21.95;;;0.50;90.50;;;;;;5028717;28;20339;-80
2024/01/18 02:09:46;;;;;;;27.90;22.20;;;0.50;90.60;;;;;;5030447;28;20057;-81
2024/01/18 02:12:13;;;;;;;31.58;22.77;;;0.50;90.70;;;;;;5032573;28;20026;-80
2024/01/18 02:14:39;;;;;;;32.05;22.55;;;0.50;90.60;;;;;;5034789;28;20094;-83
2024/01/18 02:17:06;;;;;;;34.60;23.92;;;0.50;90.80;;;;;;5035256;28;20024;-81
2024/01/18 02:19:32;;;;;;;30.90;22.17;;;0.50;90.80;;;;;;5032882;28;20033;-80
2024/01/18 02:21:59;;;;;;;32.58;22.00;;;0.50;90.90;;;;;;5034054;28;20033;-81
2024/01/18 02:24:54;;;;;;;29.13;21.67;;;0.50;90.90;;;;;;5035919;28;20470;-81
2024/01/18 02:27:20;;;;;;;33.15;22.52;;;0.40;91.00;;;;;;5039853;28;23213;-80
2024/01/18 02:29:46;;;;;;;30.15;22.33;;;0.40;91.10;;;;;;5037002;28;20025;-81
2024/01/18 02:32:12;;;;;;;30.60;21.52;;;0.40;91.30;;;;;;5033800;28;20032;-81
2024/01/18 02:34:39;;;;;;;28.60;20.85;;;0.50;91.40;;;;;;5038574;28;20041;-80
2024/01/18 02:37:08;;;;;;;33.08;20.85;;;0.50;91.40;;;;;;5039590;28;20033;-81
2024/01/18 02:39:35;;;;;;;31.17;21.85;;;0.50;91.30;;;;;;5036424;28;20037;-81
2024/01/18 02:42:02;;;;;;;34.22;22.38;;;0.50;91.30;;;;;;5039820;28;20548;-81
2024/01/18 02:44:28;;;;;;;32.25;21.67;;;0.50;91.40;;;;;;5033934;28;20102;-80
2024/01/18 02:46:54;;;;;;;30.58;21.17;;;0.50;91.50;;;;;;5043311;28;20108;-81
2024/01/18 02:49:19;;;;;;;31.15;20.75;;;0.50;91.60;;;;;;5031519;28;20053;-84
2024/01/18 02:51:45;;;;;;;32.45;22.25;;;0.50;91.70;;;;;;5045894;28;20032;-81
2024/01/18 02:54:11;;;;;;;32.35;22.52;;;0.50;91.70;;;;;;5037159;28;20438;-81
2024/01/18 02:56:39;;;;;;;34.30;21.92;;;0.50;91.90;;;;;;5039482;28;20530;-83
2024/01/18 02:59:05;;;;;;;32.78;21.38;;;0.50;91.90;;;;;;5036517;28;20056;-81
2024/01/18 03:01:31;;;;;;;30.08;21.55;;;0.50;91.90;;;;;;5039506;28;20377;-81
2024/01/18 03:03:57;;;;;;;29.45;20.95;;;0.60;91.90;;;;;;5036851;28;20548;-82
2024/01/18 03:06:22;;;;;;;35.22;22.17;;;0.50;92.00;;;;;;5031458;28;20029;-81
2024/01/18 03:08:48;;;;;;;27.27;20.33;;;0.60;92.00;;;;;;5027474;28;20393;-82
2024/01/18 03:11:14;;;;;;;29.35;20.02;;;0.50;92.00;;;;;;5037151;28;20027;-82
2024/01/18 03:13:40;;;;;;;29.45;20.83;;;0.50;92.00;;;;;;5032878;28;20117;-82
2024/01/18 03:16:07;;;;;;;31.73;20.83;;;0.50;92.10;;;;;;5035770;28;20059;-82
2024/01/18 03:18:35;;;;;;;29.70;20.25;;;0.50;92.10;;;;;;5034018;28;20026;-83
2024/01/18 03:21:04;;;;;;;27.85;20.27;;;0.50;92.00;;;;;;5036364;28;20158;-81
2024/01/18 03:23:30;;;;;;;28.63;20.20;;;0.50;91.90;;;;;;5029716;28;20369;-81
2024/01/18 03:25:55;;;;;;;28.25;20.35;;;0.40;91.90;;;;;;5038698;28;20022;-82
2024/01/18 03:28:21;;;;;;;31.23;21.02;;;0.40;91.90;;;;;;5035621;28;20060;-81
2024/01/18 03:30:47;;;;;;;30.77;21.25;;;0.40;92.00;;;;;;5037831;28;20063;-81
2024/01/18 03:33:12;;;;;;;29.88;20.63;;;0.30;92.10;;;;;;5039359;28;20066;-81
2024/01/18 03:35:38;;;;;;;33.17;21.33;;;0.30;92.10;;;;;;5031849;28;20060;-82
2024/01/18 03:38:04;;;;;;;28.35;20.05;;;0.20;92.10;;;;;;5039582;28;20311;-81
2024/01/18 03:40:29;;;;;;;30.42;20.50;;;0.20;92.20;;;;;;5037728;28;21049;-81
2024/01/18 03:42:55;;;;;;;30.27;20.40;;;0.10;92.20;;;;;;5041378;28;20124;-83
2024/01/18 03:45:21;;;;;;;30.80;20.55;;;0.10;92.30;;;;;;5038140;28;20016;-80
2024/01/18 03:47:46;;;;;;;27.88;19.75;;;0.10;92.20;;;;;;5034195;28;20026;-81
2024/01/18 03:50:12;;;;;;;31.17;20.58;;;0.00;92.30;;;;;;5033154;28;20502;-81
2024/01/18 03:52:38;;;;;;;29.70;19.65;;;0.00;92.30;;;;;;5039501;28;20045;-82
2024/01/18 03:55:05;;;;;;;29.27;20.08;;;-3276.70;92.40;;;;;;5038594;28;20031;-81
2024/01/18 03:57:31;;;;;;;30.27;20.02;;;-3276.60;92.50;;;;;;5034504;28;20013;-81
2024/01/18 03:59:57;;;;;;;28.33;20.35;;;-3276.60;92.60;;;;;;5026203;28;20376;-81
2024/01/18 04:02:22;;;;;;;28.00;20.35;;;-3276.50;92.80;;;;;;5032743;28;20625;-82
2024/01/18 04:04:48;;;;;;;31.30;20.27;;;-3276.50;92.90;;;;;;5028534;28;20562;-81
2024/01/18 04:07:15;;;;;;;32.60;20.98;;;-3276.40;92.90;;;;;;5035439;28;20021;-82
2024/01/18 04:09:40;;;;;;;28.02;20.42;;;-3276.40;93.00;;;;;;5030980;28;20477;-83
2024/01/18 04:12:07;;;;;;;27.75;20.38;;;-3276.40;93.10;;;;;;5036424;28;20024;-82
2024/01/18 04:14:32;;;;;;;29.73;20.73;;;-3276.40;93.10;;;;;;5028210;28;20064;-81
2024/01/18 04:16:58;;;;;;;27.52;19.83;;;-3276.30;93.20;;;;;;5035011;28;20087;-81
2024/01/18 04:19:23;;;;;;;29.75;19.40;;;-3276.20;93.10;;;;;;5037573;28;20041;-81
2024/01/18 04:21:49;;;;;;;28.20;19.80;;;-3276.10;93.20;;;;;;5037689;28;20032;-83
2024/01/18 04:24:15;;;;;;;29.40;20.27;;;-3276.00;93.30;;;;;;5033929;28;20049;-80
2024/01/18 04:26:41;;;;;;;29.00;19.63;;;-3276.00;93.40;;;;;;5030412;28;20095;-81
2024/01/18 04:29:06;;;;;;;30.88;20.17;;;-3275.90;93.40;;;;;;5034351;28;20037;-81
2024/01/18 04:31:32;;;;;;;27.10;20.13;;;-3275.90;93.50;;;;;;5030971;28;20116;-81
2024/01/18 04:33:57;;;;;;;28.73;19.65;;;-3275.80;93.60;;;;;;5033495;28;20045;-81
2024/01/18 04:36:23;;;;;;;29.30;19.38;;;-3275.90;93.60;;;;;;5033439;28;20026;-81
2024/01/18 04:38:49;;;;;;;28.65;19.70;;;-3275.80;93.60;;;;;;5030349;28;20335;-81
2024/01/18 04:41:15;;;;;;;28.88;20.67;;;-3275.70;93.70;;;;;;5031029;28;20456;-81
2024/01/18 04:43:40;;;;;;;28.88;20.08;;;-3275.70;93.70;;;;;;5036014;28;20430;-81
2024/01/18 04:46:09;;;;;;;32.15;20.38;;;-3275.70;93.70;;;;;;5036756;28;20017;-81
2024/01/18 04:48:36;;;;;;;26.98;17.92;;;-3275.70;93.70;;;;;;5029899;28;20076;-80
2024/01/18 04:51:03;;;;;;;28.45;19.20;;;-3275.60;93.70;;;;;;5031405;28;20017;-80
2024/01/18 04:53:29;;;;;;;31.08;21.13;;;-3275.60;93.70;;;;;;5026055;28;20032;-81
2024/01/18 04:55:55;;;;;;;30.25;20.20;;;-3275.60;93.70;;;;;;5028285;28;20029;-82
2024/01/18 04:58:21;;;;;;;29.10;19.08;;;-3275.60;93.90;;;;;;5031249;28;20029;-81
2024/01/18 05:00:47;;;;;;;29.52;18.60;;;-3275.70;94.10;;;;;;5030000;28;20466;-82
2024/01/18 05:03:12;;;;;;;29.77;19.70;;;-3275.80;94.20;;;;;;5048597;28;20052;-81
2024/01/18 05:05:38;;;;;;;31.90;18.58;;;-3275.80;94.30;;;;;;5031464;28;20021;-82
2024/01/18 05:08:04;;;;;;;29.60;19.70;;;-3275.90;94.30;;;;;;5029615;28;20037;-81
2024/01/18 05:10:30;;;;;;;27.33;18.80;;;-3275.90;94.40;;;;;;5031009;28;20017;-81
2024/01/18 05:12:56;;;;;;;27.95;17.63;;;-3275.80;94.50;;;;;;5035677;28;20040;-81
2024/01/18 05:15:24;;;;;;;28.75;19.55;;;-3275.80;94.50;;;;;;5035356;28;20563;-80
2024/01/18 05:17:50;;;;;;;26.58;18.48;;;-3275.80;94.50;;;;;;5025576;28;20037;-82
2024/01/18 05:20:17;;;;;;;29.42;19.50;;;-3275.80;94.60;;;;;;5034039;28;20030;-82
2024/01/18 05:22:43;;;;;;;27.77;19.30;;;-3275.90;94.70;;;;;;5033729;28;20033;-82
2024/01/18 05:25:08;;;;;;;28.10;19.40;;;-3275.90;94.80;;;;;;5037848;28;20024;-82
2024/01/18 05:27:34;;;;;;;27.67;18.08;;;-3275.90;94.80;;;;;;5032288;28;20041;-82
2024/01/18 05:30:00;;;;;;;30.23;19.75;;;-3275.90;94.80;;;;;;5033237;28;20013;-82
2024/01/18 05:32:26;;;;;;;23.83;19.25;;;-3275.90;94.80;;;;;;5035003;28;20017;-81
2024/01/18 05:34:52;;;;;;;28.92;19.63;;;-3275.90;94.80;;;;;;5034300;28;20048;-82
2024/01/18 05:37:22;;;;;;;25.83;19.98;;;-3276.00;94.80;;;;;;5032698;28;20110;-81
2024/01/18 05:39:49;;;;;;;29.80;20.15;;;-3276.00;94.70;;;;;;5036057;28;20277;-82
2024/01/18 05:42:14;;;;;;;27.00;18.95;;;-3275.90;94.60;;;;;;5031360;28;20332;-81
2024/01/18 05:44:40;;;;;;;30.08;19.83;;;-3275.90;94.50;;;;;;5032265;28;20498;-82
2024/01/18 05:47:06;;;;;;;29.80;20.90;;;-3275.80;94.40;;;;;;5033069;28;20079;-81
2024/01/18 05:49:31;;;;;;;29.70;21.15;;;-3275.80;94.40;;;;;;5035583;28;20051;-82
2024/01/18 05:51:57;;;;;;;32.42;21.33;;;-3275.80;94.50;;;;;;5032691;28;20067;-81
2024/01/18 05:54:22;;;;;;;30.30;22.38;;;-3275.80;94.50;;;;;;5038167;28;20090;-81
2024/01/18 05:56:48;;;;;;;26.27;20.63;;;-3275.80;94.50;;;;;;5034651;28;20487;-81
2024/01/18 05:59:14;;;;;;;29.27;20.85;;;-3275.80;94.50;;;;;;5039393;28;20053;-81
2024/01/18 06:01:41;;;;;;;29.23;20.58;;;-3275.80;94.40;;;;;;5037087;28;20122;-81
2024/01/18 06:04:07;;;;;;;26.33;19.35;;;-3275.80;94.50;;;;;;5032828;28;20481;-81
2024/01/18 06:06:32;;;;;;;29.83;21.95;;;-3275.80;94.50;;;;;;5039298;28;20112;-81
2024/01/18 06:08:58;;;;;;;25.30;20.52;;;-3275.80;94.50;;;;;;5035979;28;20218;-82
2024/01/18 06:11:24;;;;;;;27.80;20.65;;;-3275.80;94.50;;;;;;5039555;28;20013;-80
2024/01/18 06:13:50;;;;;;;27.45;21.00;;;-3275.80;94.70;;;;;;5036092;28;20056;-81
2024/01/18 06:16:16;;;;;;;27.75;19.90;;;-3275.70;94.60;;;;;;5038317;28;20021;-81
2024/01/18 06:18:42;;;;;;;28.15;19.40;;;-3275.70;94.60;;;;;;5035298;28;20393;-82
2024/01/18 06:21:09;;;;;;;27.88;20.58;;;-3275.70;94.60;;;;;;5039310;28;20029;-81
2024/01/18 06:23:35;;;;;;;25.67;20.10;;;-3275.60;94.60;;;;;;5038069;28;20087;-81
2024/01/18 06:26:01;;;;;;;30.83;21.65;;;-3275.60;94.60;;;;;;5035808;28;20103;-81
2024/01/18 06:28:27;;;;;;;30.15;20.95;;;-3275.50;94.60;;;;;;5032689;28;20699;-79
2024/01/18 06:30:53;;;;;;;27.45;20.60;;;-3275.50;94.50;;;;;;5031168;28;20032;-78
2024/01/18 06:33:19;;;;;;;27.40;21.13;;;-3275.40;94.50;;;;;;5030387;28;20049;-80
2024/01/18 06:35:44;;;;;;;24.67;20.08;;;-3275.40;94.50;;;;;;5031225;28;20037;-80
2024/01/18 06:38:10;;;;;;;25.25;20.33;;;-3275.30;94.50;;;;;;5032846;28;20470;-80
2024/01/18 06:40:36;;;;;;;28.30;20.80;;;-3275.30;94.50;;;;;;5031590;28;20442;-79
2024/01/18 06:43:01;;;;;;;29.60;19.88;;;-3275.30;94.50;;;;;;5028011;28;20282;-80
2024/01/18 06:45:27;;;;;;;25.35;18.88;;;-3275.10;94.40;;;;;;5040984;28;20033;-80
2024/01/18 06:47:52;;;;;;;24.70;18.80;;;-3275.10;94.40;;;;;;5037088;28;20025;-81
2024/01/18 06:50:18;;;;;;;26.15;19.15;;;-3275.00;94.40;;;;;;5034738;28;20126;-81
2024/01/18 06:52:44;;;;;;;27.30;19.73;;;-3275.00;94.40;;;;;;5032486;28;20040;-81
2024/01/18 06:55:10;;;;;;;28.00;19.67;;;-3275.00;94.50;;;;;;5039497;28;20148;-80
2024/01/18 06:57:35;;;;;;;28.67;19.73;;;-3275.00;94.50;;;;;;5037325;28;20033;-81
2024/01/18 07:00:01;;;;;;;30.33;20.05;;;-3274.90;94.30;;;;;;5035881;28;20033;-81
2024/01/18 07:02:26;;;;;;;27.52;20.70;;;-3274.90;94.30;;;;;;5038236;28;20049;-81
2024/01/18 07:04:52;;;;;;;28.02;21.20;;;-3274.90;94.30;;;;;;5033040;28;20029;-81
2024/01/18 07:07:18;;;;;;;30.08;22.23;;;-3274.90;94.20;;;;;;5037046;28;20126;-80
2024/01/18 07:09:43;;;;;;;30.15;21.85;;;-3274.90;94.20;;;;;;5032179;28;20025;-81
2024/01/18 07:12:10;;;;;;;29.65;22.83;;;-3274.90;94.20;;;;;;5035228;28;20492;-80
2024/01/18 07:14:35;;;;;;;28.95;20.63;;;-3275.00;94.20;;;;;;5029734;28;20434;-80
2024/01/18 07:17:01;;;;;;;28.45;21.08;;;-3275.00;94.20;;;;;;5026368;28;20009;-80
2024/01/18 07:19:27;;;;;;;26.48;20.90;;;-3275.00;94.20;;;;;;5029116;28;20025;-80
2024/01/18 07:21:53;;;;;;;31.02;21.10;;;-3275.00;94.30;;;;;;5034850;28;20044;-80
2024/01/18 07:24:21;;;;;;;38.50;23.73;;;-3275.10;94.20;;;;;;5031915;28;20033;-80
2024/01/18 07:26:47;;;;;;;24.70;16.90;;;-3275.40;94.70;;;;;;5030303;28;20017;-79
2024/01/18 07:29:13;;;;;;;20.73;12.77;;;-3275.70;95.10;;;;;;5034510;28;20060;-72
2024/01/18 07:31:39;;;;;;;18.23;11.77;;;-3276.10;95.50;;;;;;5039952;28;20031;-71
2024/01/18 07:34:05;;;;;;;16.67;9.25;;;-3276.30;95.40;;;;;;5035821;28;20128;-72
2024/01/18 07:36:30;;;;;;;14.95;7.72;;;-3276.40;95.40;;;;;;5030196;28;20563;-72
2024/01/18 07:38:57;;;;;;;11.43;6.80;;;-3276.60;95.50;;;;;;5038394;28;20071;-75
2024/01/18 07:41:22;;;;;;;11.95;6.05;;;0.00;95.50;;;;;;5029382;28;20017;-72
2024/01/18 07:43:48;;;;;;;10.80;5.38;;;0.00;95.50;;;;;;5046012;28;20043;-73
2024/01/18 07:46:15;;;;;;;12.55;5.45;;;0.10;95.50;;;;;;5035546;28;20029;-75
2024/01/18 07:48:41;;;;;;;11.90;5.57;;;0.10;95.40;;;;;;5028600;28;20029;-73
2024/01/18 07:51:06;;;;;;;12.75;5.32;;;0.10;95.40;;;;;;5031446;28;20033;-74
2024/01/18 07:53:32;;;;;;;9.00;4.47;;;0.10;95.40;;;;;;5033100;28;20033;-75
2024/01/18 07:55:58;;;;;;;10.85;4.22;;;0.10;95.40;;;;;;5033524;28;20098;-74
2024/01/18 07:58:24;;;;;;;8.90;3.65;;;0.10;95.40;;;;;;5036182;28;20477;-73
2024/01/18 08:00:50;;;;;;;7.95;3.53;;;0.10;95.40;;;;;;5031443;28;20040;-73
2024/01/18 08:03:16;;;;;;;9.95;3.95;;;0.10;95.40;;;;;;5047022;28;20045;-75
2024/01/18 08:05:42;;;;;;;8.32;3.92;;;0.10;95.40;;;;;;5027636;28;20163;-74
2024/01/18 08:08:08;;;;;;;7.90;3.40;;;0.00;95.50;;;;;;5029311;28;20037;-74
2024/01/18 08:10:33;;;;;;;7.10;2.88;;;0.00;95.50;;;;;;5034182;28;20056;-74
2024/01/18 08:13:01;;;;;;;7.95;3.40;;;0.00;95.60;;;;;;5029771;28;20040;-73
2024/01/18 08:15:27;;;;;;;7.22;3.35;;;0.00;95.70;;;;;;5035812;28;20467;-73
2024/01/18 08:17:53;;;;;;;6.88;3.28;;;0.10;95.70;;;;;;5031377;28;20025;-74
2024/01/18 08:20:19;;;;;;;7.97;3.17;;;0.20;95.60;;;;;;5031888;28;20548;-73
2024/01/18 08:22:45;;;;;;;6.80;3.20;;;0.30;95.50;;;;;;5031152;28;20095;-74
2024/01/18 08:25:11;;;;;;;9.60;3.90;;;0.40;95.30;;;;;;5032456;28;20051;-74
2024/01/18 08:27:41;;;;;;;9.07;3.85;;;0.60;95.20;;;;;;5033408;28;20293;-73
2024/01/18 08:30:08;;;;;;;14.13;6.03;;;0.70;95.00;;;;;;5036166;28;20182;-74
2024/01/18 08:32:34;;;;;;;41.50;17.48;;;0.80;94.80;;;;;;5044071;28;20052;-75
2024/01/18 08:35:06;;;;;;;24.92;10.68;;;0.80;94.70;;;;;;5040125;28;20428;-75
2024/01/18 08:37:33;;;;;;;10.20;3.40;;;0.90;94.40;;;;;;5035026;28;20075;-74
2024/01/18 08:39:59;;;;;;;6.53;2.72;;;0.90;94.40;;;;;;5041443;28;20020;-75
2024/01/18 08:42:25;;;;;;;7.32;3.00;;;0.90;94.20;;;;;;5033548;28;20147;-74
2024/01/18 08:44:51;;;;;;;8.80;3.53;;;0.80;94.00;;;;;;5036957;28;20140;-74
2024/01/18 08:47:17;;;;;;;9.52;3.70;;;0.80;94.00;;;;;;5038132;28;20122;-74
2024/01/18 08:49:43;;;;;;;13.00;4.13;;;0.80;94.00;;;;;;5038503;28;20052;-74
2024/01/18 08:52:09;;;;;;;11.13;4.30;;;0.90;93.90;;;;;;5037150;28;20112;-75
2024/01/18 08:54:36;;;;;;;10.02;3.47;;;0.90;93.80;;;;;;5032116;28;20410;-74
2024/01/18 08:57:02;;;;;;;10.73;4.25;;;0.90;93.70;;;;;;5026585;28;20458;-73
2024/01/18 08:59:28;;;;;;;7.47;3.42;;;0.90;93.60;;;;;;5026528;28;20048;-73
2024/01/18 09:01:55;;;;;;;7.57;3.22;;;0.80;93.40;;;;;;5029314;28;20034;-73
2024/01/18 09:04:20;;;;;;;6.95;3.92;;;0.80;93.20;;;;;;5034501;28;20150;-73
2024/01/18 09:06:46;;;;;;;18.55;11.38;;;0.80;93.30;;;;;;5038313;28;20413;-73
2024/01/18 09:09:13;;;;;;;13.20;6.90;;;0.70;93.40;;;;;;5029165;28;20029;-73
2024/01/18 09:11:39;;;;;;;34.80;18.40;;;0.70;93.30;;;;;;5037016;28;20053;-76
2024/01/18 09:14:05;;;;;;;13.32;6.28;;;0.60;93.20;;;;;;5036451;28;20650;-73
2024/01/18 09:16:31;;;;;;;10.00;4.50;;;0.60;93.50;;;;;;5038293;28;20453;-75
2024/01/18 09:18:58;;;;;;;8.90;4.20;;;0.60;93.60;;;;;;5037398;28;20091;-77
2024/01/18 09:21:24;;;;;;;10.32;3.63;;;0.60;93.60;;;;;;5034620;28;20155;-72
2024/01/18 09:23:50;;;;;;;9.35;3.55;;;0.60;93.70;;;;;;5039212;28;20561;-74
2024/01/18 09:26:16;;;;;;;7.45;3.33;;;0.60;93.80;;;;;;5037326;28;20036;-74
2024/01/18 09:28:43;;;;;;;6.65;3.42;;;0.60;93.90;;;;;;5028777;28;20075;-74
2024/01/18 09:31:09;;;;;;;7.82;3.15;;;0.70;94.10;;;;;;5041541;28;20025;-75
2024/01/18 09:33:37;;;;;;;11.07;4.53;;;0.90;94.30;;;;;;5041294;28;20324;-75
2024/01/18 09:36:06;;;;;;;8.68;4.25;;;1.10;94.50;;;;;;5041326;28;20358;-72
2024/01/18 09:38:36;;;;;;;10.27;3.85;;;1.50;94.40;;;;;;5045952;28;20319;-73
2024/01/18 09:41:05;;;;;;;7.70;3.50;;;1.90;94.20;;;;;;5038793;28;20032;-74
2024/01/18 09:43:36;;;;;;;9.13;4.20;;;2.20;93.30;;;;;;5034717;28;20470;-73
2024/01/18 09:46:06;;;;;;;5.20;3.03;;;2.50;92.70;;;;;;5042302;28;20025;-75
2024/01/18 09:48:33;;;;;;;5.07;2.60;;;2.60;92.00;;;;;;5038048;28;20025;-74
2024/01/18 09:51:00;;;;;;;7.35;3.05;;;2.80;91.40;;;;;;5038797;28;20042;-74
2024/01/18 09:53:27;;;;;;;7.28;2.65;;;3.00;91.10;;;;;;5035073;28;20432;-74
2024/01/18 09:55:53;;;;;;;7.07;2.85;;;3.10;90.50;;;;;;5035165;28;20018;-75
2024/01/18 09:58:19;;;;;;;6.25;2.95;;;3.10;90.30;;;;;;5037538;28;20366;-72
2024/01/18 10:00:57;;;;;;;6.97;3.10;;;3.30;90.70;;;;;;5035050;28;20074;-74
2024/01/18 10:03:24;;;;;;;5.93;3.03;;;3.30;90.10;;;;;;5032278;28;20396;-72
2024/01/18 10:05:50;;;;;;;7.15;3.70;;;3.30;90.20;;;;;;5031876;28;20021;-73
2024/01/18 10:08:17;;;;;;;5.72;2.40;;;3.20;89.70;;;;;;5041958;28;20048;-72
2024/01/18 10:10:43;;;;;;;3.45;2.45;;;3.10;90.00;;;;;;5042523;28;20019;-72
2024/01/18 10:13:13;;;;;;;3.83;2.58;;;2.90;90.10;;;;;;5039428;28;20031;-74
2024/01/18 10:15:41;;;;;;;4.97;2.90;;;2.80;90.40;;;;;;5036491;28;20038;-73
2024/01/18 10:18:08;;;;;;;7.00;2.70;;;2.80;90.30;;;;;;5036945;28;20033;-73
2024/01/18 10:20:36;;;;;;;5.93;2.88;;;2.80;90.50;;;;;;5032554;28;20065;-73
2024/01/18 10:23:02;;;;;;;4.63;2.58;;;2.80;90.60;;;;;;5036310;28;20079;-73
2024/01/18 10:25:30;;;;;;;4.93;2.60;;;2.80;90.80;;;;;;5034273;28;20022;-73
2024/01/18 10:27:57;;;;;;;5.22;2.30;;;3.00;90.80;;;;;;5031297;28;20036;-75
2024/01/18 10:30:24;;;;;;;4.63;2.38;;;3.10;90.40;;;;;;5037798;28;20030;-73
2024/01/18 10:32:50;;;;;;;4.65;2.30;;;3.10;90.00;;;;;;5036619;28;20041;-73
2024/01/18 10:35:23;;;;;;;3.95;2.15;;;3.00;90.00;;;;;;5035169;28;20025;-73
2024/01/18 10:38:06;;;;;;;3.63;2.33;;;2.90;90.30;;;;;;5036269;28;20103;-74
2024/01/18 10:40:36;;;;;;;5.00;2.35;;;2.80;90.50;;;;;;5042770;28;20025;-73
2024/01/18 10:43:04;;;;;;;7.18;2.90;;;2.90;90.70;;;;;;5043004;28;20029;-74
2024/01/18 10:45:31;;;;;;;5.72;2.67;;;2.90;90.70;;;;;;5041036;28;20401;-72
2024/01/18 10:47:57;;;;;;;4.78;2.40;;;3.00;90.90;;;;;;5040464;28;20021;-74
2024/01/18 10:50:24;;;;;;;4.85;2.28;;;3.10;90.60;;;;;;5021839;28;20018;-73
2024/01/18 10:52:51;;;;;;;8.02;2.35;;;3.10;90.30;;;;;;5045159;28;23112;-72
2024/01/18 10:55:17;;;;;;;6.50;2.70;;;3.00;90.30;;;;;;5036103;28;20369;-73
2024/01/18 10:57:45;;;;;;;7.45;2.40;;;3.00;90.40;;;;;;5040354;28;20045;-74
2024/01/18 11:00:16;;;;;;;5.60;2.45;;;3.00;90.30;;;;;;5033496;28;20017;-72
2024/01/18 11:02:44;;;;;;;5.03;2.45;;;3.00;90.30;;;;;;5035306;28;20072;-73
2024/01/18 11:05:17;;;;;;;4.75;2.40;;;3.00;89.90;;;;;;5040550;28;20028;-76
2024/01/18 11:07:43;;;;;;;5.45;2.38;;;3.00;90.00;;;;;;5038414;28;20044;-73
2024/01/18 11:10:11;;;;;;;6.75;2.13;;;3.10;89.90;;;;;;5051016;28;20028;-73
2024/01/18 11:12:41;;;;;;;7.72;2.60;;;3.20;89.90;;;;;;5035328;28;20033;-73
2024/01/18 11:15:12;;;;;;;6.35;2.55;;;3.20;89.80;;;;;;5037411;28;20025;-74
2024/01/18 11:17:46;;;;;;;7.65;2.53;;;3.20;90.00;;;;;;5033455;28;20091;-74
2024/01/18 11:20:13;;;;;;;3.60;2.00;;;2.90;90.40;;;;;;5037205;28;20029;-74
2024/01/18 11:22:41;;;;;;;5.93;2.25;;;2.70;91.20;;;;;;5033181;28;20029;-74
2024/01/18 11:25:12;;;;;;;4.65;2.20;;;2.80;91.70;;;;;;5037865;28;20070;-73
2024/01/18 11:27:39;;;;;;;4.22;1.90;;;2.80;91.50;;;;;;5034327;28;20038;-74
2024/01/18 11:30:31;;;;;;;4.72;1.90;;;2.80;91.30;;;;;;5039883;28;20571;-74
2024/01/18 11:32:57;;;;;;;4.90;1.73;;;2.80;91.60;;;;;;5036976;28;20096;-74
2024/01/18 11:35:24;;;;;;;7.40;1.63;;;2.80;91.60;;;;;;5046037;28;20025;-73
2024/01/18 11:37:50;;;;;;;3.85;1.40;;;2.90;91.50;;;;;;5035254;28;20041;-75
2024/01/18 11:40:18;;;;;;;3.83;1.98;;;3.00;91.30;;;;;;5033552;28;20116;-74
2024/01/18 11:42:45;;;;;;;5.70;1.88;;;3.10;91.00;;;;;;5036281;28;20075;-73
2024/01/18 11:45:17;;;;;;;5.07;1.70;;;2.90;90.60;;;;;;5033095;28;20025;-74
2024/01/18 11:47:44;;;;;;;5.80;2.30;;;2.70;91.20;;;;;;5033312;28;20030;-73
2024/01/18 11:50:14;;;;;;;4.72;2.00;;;2.70;91.70;;;;;;5037359;28;20438;-74
2024/01/18 11:52:41;;;;;;;4.82;2.13;;;2.80;92.00;;;;;;5036933;28;20017;-74
2024/01/18 11:55:15;;;;;;;9.43;2.50;;;2.90;91.60;;;;;;5037263;28;20021;-75
2024/01/18 11:57:41;;;;;;;5.18;2.53;;;3.00;91.40;;;;;;5033346;28;20029;-74
2024/01/18 12:00:07;;;;;;;4.72;2.50;;;3.00;91.50;;;;;;5037525;28;20013;-74
2024/01/18 12:02:33;;;;;;;5.85;2.25;;;3.00;91.40;;;;;;5037581;28;20489;-73
2024/01/18 12:04:59;;;;;;;7.72;2.30;;;3.10;91.20;;;;;;5042776;28;20067;-75
2024/01/18 12:07:26;;;;;;;6.28;2.28;;;3.10;91.30;;;;;;5026989;28;20068;-74
2024/01/18 12:09:53;;;;;;;7.70;2.47;;;3.10;91.00;;;;;;5031534;28;20028;-73
2024/01/18 12:12:20;;;;;;;4.60;2.40;;;3.30;91.20;;;;;;5035068;28;20536;-73
2024/01/18 12:14:47;;;;;;;5.28;2.80;;;3.60;91.50;;;;;;5035439;28;20458;-72
2024/01/18 12:17:14;;;;;;;5.30;2.33;;;3.70;90.80;;;;;;5033315;28;21067;-73
2024/01/18 12:19:42;;;;;;;8.80;2.58;;;3.80;89.80;;;;;;5037376;28;20340;-74
2024/01/18 12:22:22;;;;;;;5.63;2.33;;;3.80;89.40;;;;;;5038317;28;20112;-73
2024/01/18 12:24:49;;;;;;;5.93;2.35;;;4.00;89.70;;;;;;5038181;28;20033;-72
2024/01/18 12:27:15;;;;;;;5.43;2.42;;;4.10;89.60;;;;;;5034480;28;20116;-73